createdAt,value
2022-08-17T00:00:43.775Z,14.88
2022-08-17T00:03:22.425Z,15.43
2022-08-17T00:05:53.606Z,15.38
2022-08-17T00:08:25.547Z,14.95
2022-08-17T00:10:55.083Z,14.18
2022-08-17T00:13:27.562Z,14.55
2022-08-17T00:15:59.992Z,14.52
2022-08-17T00:18:57.648Z,13.77
2022-08-17T00:21:25.163Z,13.85
2022-08-17T00:23:55.394Z,15.02
2022-08-17T00:26:43.464Z,14.52
2022-08-17T00:29:19.580Z,14.98
2022-08-17T00:31:49.684Z,14.57
2022-08-17T00:34:20.273Z,14.57
2022-08-17T00:36:49.206Z,14.20
2022-08-17T00:39:18.037Z,14.30
2022-08-17T00:41:47.023Z,13.90
2022-08-17T00:44:16.491Z,14.95
2022-08-17T00:46:47.897Z,14.95
2022-08-17T00:49:19.597Z,14.68
2022-08-17T00:51:54.404Z,14.57
2022-08-17T00:54:26.695Z,14.85
2022-08-17T00:56:58.505Z,15.18
2022-08-17T00:59:32.355Z,15.32
2022-08-17T01:02:02.009Z,15.38
2022-08-17T01:04:33.498Z,15.75
2022-08-17T01:07:04.693Z,14.60
2022-08-17T01:09:34.203Z,15.80
2022-08-17T01:12:03.082Z,14.63
2022-08-17T01:14:32.055Z,15.30
2022-08-17T01:17:01.566Z,14.93
2022-08-17T01:19:32.593Z,15.73
2022-08-17T01:22:06.130Z,15.90
2022-08-17T01:24:38.723Z,15.15
2022-08-17T01:27:10.146Z,16.30
2022-08-17T01:29:42.430Z,15.60
2022-08-17T01:32:12.581Z,15.90
2022-08-17T01:34:42.510Z,14.70
2022-08-17T01:37:12.846Z,16.00
2022-08-17T01:39:46.679Z,16.33
2022-08-17T01:42:22.342Z,17.08
2022-08-17T01:44:56.660Z,16.70
2022-08-17T01:47:25.665Z,17.73
2022-08-17T01:49:54.517Z,19.15
2022-08-17T01:52:23.878Z,19.52
2022-08-17T01:54:54.920Z,19.52
2022-08-17T01:57:23.632Z,19.33
2022-08-17T01:59:52.426Z,20.13
2022-08-17T02:02:30.638Z,18.75
2022-08-17T02:05:01.122Z,17.95
2022-08-17T02:07:30.334Z,17.10
2022-08-17T02:10:01.229Z,18.90
2022-08-17T02:12:37.852Z,21.10
2022-08-17T02:15:12.408Z,19.70
2022-08-17T02:17:41.795Z,19.95
2022-08-17T02:20:11.730Z,18.23
2022-08-17T02:22:43.489Z,18.67
2022-08-17T02:25:17.744Z,17.88
2022-08-17T02:27:48.478Z,18.42
2022-08-17T02:31:01.766Z,18.25
2022-08-17T02:33:09.351Z,18.23
2022-08-17T02:35:38.968Z,20.70
2022-08-17T02:38:08.842Z,21.65
2022-08-17T02:40:40.615Z,20.23
2022-08-17T02:43:10.274Z,21.10
2022-08-17T02:45:39.658Z,19.13
2022-08-17T02:48:08.768Z,21.50
2022-08-17T02:50:38.300Z,22.02
2022-08-17T02:53:07.403Z,21.63
2022-08-17T02:55:41.583Z,23.00
2022-08-17T02:58:11.598Z,23.50
2022-08-17T03:00:42.756Z,21.73
2022-08-17T03:03:13.627Z,20.30
2022-08-17T03:05:42.419Z,21.70
2022-08-17T03:08:13.422Z,21.83
2022-08-17T03:10:45.023Z,24.23
2022-08-17T03:13:15.772Z,22.13
2022-08-17T03:15:46.404Z,23.85
2022-08-17T03:18:25.082Z,23.38
2022-08-17T03:20:55.557Z,23.13
2022-08-17T03:23:25.606Z,24.67
2022-08-17T03:25:56.595Z,26.40
2022-08-17T03:28:25.992Z,26.17
2022-08-17T03:30:54.998Z,26.77
2022-08-17T03:33:24.465Z,26.92
2022-08-17T03:35:53.536Z,31.52
2022-08-17T03:38:23.278Z,33.25
2022-08-17T03:40:57.058Z,32.00
2022-08-17T03:43:33.038Z,31.77
2022-08-17T03:46:28.216Z,29.67
2022-08-17T03:49:22.543Z,29.40
2022-08-17T03:52:08.543Z,28.23
2022-08-17T03:54:55.415Z,29.10
2022-08-17T03:57:24.756Z,29.60
2022-08-17T03:59:55.939Z,29.52
2022-08-17T04:02:28.025Z,30.27
2022-08-17T04:04:57.587Z,27.45
2022-08-17T04:07:29.845Z,25.67
2022-08-17T04:09:59.537Z,24.52
2022-08-17T04:12:31.021Z,23.23
2022-08-17T04:15:01.683Z,21.85
2022-08-17T04:17:30.803Z,21.75
2022-08-17T04:19:59.739Z,20.15
2022-08-17T04:22:32.479Z,19.83
2022-08-17T04:25:08.072Z,20.50
2022-08-17T04:27:37.180Z,18.98
2022-08-17T04:30:08.378Z,18.88
2022-08-17T04:33:04.251Z,17.08
2022-08-17T04:35:38.620Z,17.73
2022-08-17T04:38:08.834Z,16.38
2022-08-17T04:40:55.149Z,16.80
2022-08-17T04:43:27.059Z,16.48
2022-08-17T04:45:59.060Z,15.65
2022-08-17T04:48:36.150Z,15.35
2022-08-17T04:51:09.943Z,15.88
2022-08-17T04:53:40.416Z,15.13
2022-08-17T04:56:16.100Z,15.93
2022-08-17T04:58:48.284Z,14.80
2022-08-17T05:01:23.457Z,15.75
2022-08-17T05:03:54.308Z,15.70
2022-08-17T05:06:23.959Z,15.43
2022-08-17T05:08:52.896Z,17.42
2022-08-17T05:11:22.378Z,15.70
2022-08-17T05:13:51.506Z,16.20
2022-08-17T05:16:22.911Z,15.35
2022-08-17T05:18:52.181Z,14.23
2022-08-17T05:21:22.110Z,13.75
2022-08-17T05:23:56.181Z,14.50
2022-08-17T05:26:27.431Z,14.40
2022-08-17T05:28:59.771Z,15.05
2022-08-17T05:31:31.956Z,14.40
2022-08-17T05:34:00.880Z,13.57
2022-08-17T05:36:41.708Z,13.82
2022-08-17T05:39:16.707Z,13.90
2022-08-17T05:41:48.741Z,13.60
2022-08-17T05:44:18.018Z,13.20
2022-08-17T05:46:51.906Z,13.65
2022-08-17T05:49:29.540Z,13.73
2022-08-17T05:52:21.992Z,13.63
2022-08-17T05:55:09.043Z,12.68
2022-08-17T05:57:47.673Z,13.13
2022-08-17T06:00:30.529Z,13.93
2022-08-17T06:03:18.537Z,12.95
2022-08-17T06:06:06.294Z,12.70
2022-08-17T06:08:45.406Z,12.73
2022-08-17T06:11:23.657Z,12.63
2022-08-17T06:14:10.666Z,12.45
2022-08-17T06:16:42.770Z,12.07
2022-08-17T06:19:18.271Z,11.30
2022-08-17T06:21:52.266Z,11.73
2022-08-17T06:24:27.461Z,11.10
2022-08-17T06:26:58.455Z,11.55
2022-08-17T06:29:37.261Z,11.57
2022-08-17T06:32:08.968Z,11.77
2022-08-17T06:34:40.664Z,12.27
2022-08-17T06:37:43.750Z,10.43
2022-08-17T06:40:32.108Z,11.18
2022-08-17T06:43:21.578Z,11.10
2022-08-17T06:45:58.818Z,11.65
2022-08-17T06:48:34.461Z,11.35
2022-08-17T06:51:15.487Z,11.85
2022-08-17T06:53:48.987Z,11.68
2022-08-17T06:56:53.222Z,11.88
2022-08-17T06:59:20.425Z,12.43
2022-08-17T07:01:52.157Z,12.18
2022-08-17T07:04:24.676Z,13.55
2022-08-17T07:07:00.046Z,12.65
2022-08-17T07:09:36.350Z,11.55
2022-08-17T07:12:13.720Z,10.77
2022-08-17T07:14:51.800Z,11.07
2022-08-17T07:17:36.919Z,9.95
2022-08-17T07:20:17.712Z,10.20
2022-08-17T07:23:00.261Z,9.45
2022-08-17T07:25:30.809Z,8.90
2022-08-17T07:28:02.511Z,10.10
2022-08-17T07:30:44.569Z,9.98
2022-08-17T07:33:20.440Z,8.65
2022-08-17T07:35:50.286Z,9.80
2022-08-17T07:38:25.859Z,9.18
2022-08-17T07:41:07.936Z,10.05
2022-08-17T07:43:46.179Z,10.45
2022-08-17T07:46:36.129Z,9.32
2022-08-17T07:49:25.332Z,9.77
2022-08-17T07:52:24.246Z,12.25
2022-08-17T07:54:51.486Z,10.18
2022-08-17T07:57:32.836Z,9.60
2022-08-17T08:00:32.030Z,9.90
2022-08-17T08:03:14.794Z,10.63
2022-08-17T08:05:52.626Z,9.20
2022-08-17T08:08:29.149Z,9.57
2022-08-17T08:11:29.236Z,9.98
2022-08-17T08:14:21.701Z,9.32
2022-08-17T08:17:00.391Z,9.00
2022-08-17T08:19:30.158Z,8.90
2022-08-17T08:22:07.708Z,9.80
2022-08-17T08:24:55.530Z,9.45
2022-08-17T08:27:38.516Z,9.45
2022-08-17T08:30:10.813Z,9.52
2022-08-17T08:33:04.233Z,8.40
2022-08-17T08:35:35.640Z,8.02
2022-08-17T08:38:16.390Z,9.13
2022-08-17T08:40:58.520Z,8.48
2022-08-17T08:43:39.217Z,9.15
2022-08-17T08:46:22.668Z,8.50
2022-08-17T08:49:33.813Z,8.60
2022-08-17T08:52:21.889Z,8.68
2022-08-17T08:54:59.553Z,8.07
2022-08-17T08:57:34.339Z,8.18
2022-08-17T09:00:21.160Z,7.70
2022-08-17T09:03:51.899Z,9.27
2022-08-17T09:06:39.000Z,8.70
2022-08-17T09:09:20.129Z,8.13
2022-08-17T09:12:02.874Z,7.85
2022-08-17T09:14:45.382Z,8.43
2022-08-17T09:17:22.483Z,8.20
2022-08-17T09:19:57.241Z,8.00
2022-08-17T09:22:34.496Z,7.70
2022-08-17T09:25:09.244Z,7.30
2022-08-17T09:27:51.577Z,7.05
2022-08-17T09:30:21.103Z,6.95
2022-08-17T09:32:58.843Z,6.50
2022-08-17T09:35:37.013Z,6.22
2022-08-17T09:38:21.082Z,6.18
2022-08-17T09:40:54.409Z,6.32
2022-08-17T09:43:35.275Z,7.05
2022-08-17T09:46:11.290Z,6.20
2022-08-17T09:48:50.301Z,7.20
2022-08-17T09:51:25.909Z,7.30
2022-08-17T09:53:54.683Z,6.65
2022-08-17T09:56:42.327Z,7.03
2022-08-17T09:59:38.229Z,6.68
2022-08-17T10:02:33.160Z,6.93
2022-08-17T10:05:09.512Z,6.72
2022-08-17T10:07:43.891Z,6.50
2022-08-17T10:10:17.266Z,6.43
2022-08-17T10:12:56.643Z,6.32
2022-08-17T10:15:48.340Z,6.40
2022-08-17T10:18:30.512Z,5.97
2022-08-17T10:21:24.768Z,5.25
2022-08-17T10:24:16.438Z,4.68
2022-08-17T10:26:57.246Z,4.95
2022-08-17T10:29:47.334Z,5.20
2022-08-17T10:32:27.288Z,5.25
2022-08-17T10:35:26.200Z,5.20
2022-08-17T10:38:21.546Z,5.20
2022-08-17T10:40:58.662Z,6.20
2022-08-17T10:43:38.286Z,4.90
2022-08-17T10:46:30.862Z,4.90
2022-08-17T10:49:30.576Z,4.88
2022-08-17T10:52:00.936Z,4.53
2022-08-17T10:55:08.749Z,4.70
2022-08-17T10:57:41.232Z,5.68
2022-08-17T11:00:14.875Z,5.03
2022-08-17T11:02:50.953Z,5.13
2022-08-17T11:05:44.591Z,5.15
2022-08-17T11:08:57.576Z,4.88
2022-08-17T11:11:52.766Z,4.75
2022-08-17T11:14:34.915Z,10.38
2022-08-17T11:17:16.399Z,5.30
2022-08-17T11:20:22.818Z,4.57
2022-08-17T11:23:10.978Z,4.70
2022-08-17T11:25:42.042Z,4.97
2022-08-17T11:28:19.255Z,5.00
2022-08-17T11:30:50.869Z,4.78
2022-08-17T11:33:58.851Z,5.00
2022-08-17T11:36:41.632Z,6.10
2022-08-17T11:39:26.521Z,4.60
2022-08-17T11:42:01.356Z,4.70
2022-08-17T11:44:44.040Z,4.57
2022-08-17T11:47:36.468Z,4.60
2022-08-17T11:50:49.542Z,5.10
2022-08-17T11:54:14.721Z,4.75
2022-08-17T11:56:47.251Z,4.85
2022-08-17T12:00:10.159Z,5.30
2022-08-17T12:02:48.295Z,5.22
2022-08-17T12:05:34.100Z,5.55
2022-08-17T12:08:15.925Z,4.90
2022-08-17T12:10:55.428Z,5.35
2022-08-17T12:13:30.469Z,5.57
2022-08-17T12:16:09.900Z,5.50
2022-08-17T12:18:42.045Z,5.50
2022-08-17T12:21:23.545Z,4.88
2022-08-17T12:23:58.650Z,4.70
2022-08-17T12:26:31.869Z,5.10
2022-08-17T12:29:03.099Z,4.78
2022-08-17T12:31:43.323Z,4.70
2022-08-17T12:34:18.977Z,5.22
2022-08-17T12:36:51.054Z,4.75
2022-08-17T12:39:22.963Z,5.30
2022-08-17T12:42:01.550Z,4.97
2022-08-17T12:44:33.581Z,5.20
2022-08-17T12:47:21.929Z,4.80
2022-08-17T12:49:54.331Z,5.18
2022-08-17T12:52:25.585Z,4.78
2022-08-17T12:54:59.386Z,4.85
2022-08-17T12:57:33.131Z,5.00
2022-08-17T13:00:09.664Z,5.13
2022-08-17T13:02:45.941Z,4.75
2022-08-17T13:05:24.986Z,4.72
2022-08-17T13:07:54.577Z,4.88
2022-08-17T13:10:32.557Z,5.18
2022-08-17T13:13:05.963Z,4.97
2022-08-17T13:15:44.816Z,4.80
2022-08-17T13:18:39.858Z,5.20
2022-08-17T13:21:27.225Z,5.15
2022-08-17T13:24:01.471Z,4.78
2022-08-17T13:26:40.221Z,4.80
2022-08-17T13:29:18.448Z,4.53
2022-08-17T13:31:52.850Z,5.30
2022-08-17T13:34:39.906Z,4.43
2022-08-17T13:37:32.667Z,4.65
2022-08-17T13:40:04.598Z,4.55
2022-08-17T13:42:52.087Z,4.63
2022-08-17T13:45:54.517Z,4.40
2022-08-17T13:48:32.191Z,4.35
2022-08-17T13:51:24.505Z,4.93
2022-08-17T13:54:24.440Z,4.90
2022-08-17T13:56:58.820Z,4.63
2022-08-17T13:59:53.704Z,4.80
2022-08-17T14:02:28.258Z,4.60
2022-08-17T14:05:00.615Z,4.72
2022-08-17T14:07:33.776Z,4.82
2022-08-17T14:10:09.492Z,4.28
2022-08-17T14:12:40.954Z,4.72
2022-08-17T14:15:11.914Z,4.53
2022-08-17T14:17:40.545Z,5.15
2022-08-17T14:20:11.850Z,4.72
2022-08-17T14:22:44.172Z,4.60
2022-08-17T14:25:16.765Z,4.10
2022-08-17T14:27:52.777Z,4.57
2022-08-17T14:30:28.862Z,4.68
2022-08-17T14:32:58.723Z,4.97
2022-08-17T14:35:29.381Z,4.30
2022-08-17T14:37:58.217Z,4.75
2022-08-17T14:40:29.241Z,4.28
2022-08-17T14:42:58.492Z,4.82
2022-08-17T14:45:32.896Z,4.97
2022-08-17T14:48:05.808Z,5.30
2022-08-17T14:50:36.234Z,5.45
2022-08-17T14:53:06.531Z,4.78
2022-08-17T14:55:39.872Z,6.20
2022-08-17T14:58:09.447Z,4.85
2022-08-17T15:00:39.502Z,4.88
2022-08-17T15:03:08.228Z,4.80
2022-08-17T15:05:39.299Z,4.90
2022-08-17T15:08:08.933Z,5.15
2022-08-17T15:10:39.251Z,5.18
2022-08-17T15:13:17.855Z,4.80
2022-08-17T15:15:46.829Z,5.20
2022-08-17T15:18:15.764Z,4.90
2022-08-17T15:20:45.867Z,4.93
2022-08-17T15:23:15.118Z,5.28
2022-08-17T15:25:46.339Z,5.00
2022-08-17T15:28:15.623Z,4.82
2022-08-17T15:30:45.119Z,4.70
2022-08-17T15:33:15.663Z,5.10
2022-08-17T15:35:45.861Z,4.68
2022-08-17T15:38:14.443Z,4.55
2022-08-17T15:40:47.596Z,5.55
2022-08-17T15:43:24.757Z,4.55
2022-08-17T15:46:00.771Z,4.50
2022-08-17T15:48:41.400Z,4.50
2022-08-17T15:51:12.831Z,5.05
2022-08-17T15:53:43.165Z,4.72
2022-08-17T15:56:15.432Z,5.47
2022-08-17T15:58:46.593Z,4.25
2022-08-17T16:01:25.370Z,5.32
2022-08-17T16:04:14.910Z,4.90
2022-08-17T16:06:55.171Z,4.70
2022-08-17T16:09:23.676Z,4.95
2022-08-17T16:11:55.578Z,5.30
2022-08-17T16:14:30.330Z,4.70
2022-08-17T16:17:04.814Z,5.00
2022-08-17T16:19:53.710Z,5.32
2022-08-17T16:22:32.336Z,5.25
2022-08-17T16:25:03.856Z,5.47
2022-08-17T16:27:33.786Z,6.00
2022-08-17T16:30:02.419Z,5.20
2022-08-17T16:32:32.936Z,5.07
2022-08-17T16:35:05.305Z,12.27
2022-08-17T16:37:36.621Z,6.03
2022-08-17T16:40:07.674Z,5.18
2022-08-17T16:42:39.526Z,5.00
2022-08-17T16:45:11.780Z,4.85
2022-08-17T16:47:41.819Z,5.15
2022-08-17T16:50:12.226Z,5.00
2022-08-17T16:52:41.337Z,4.82
2022-08-17T16:55:13.312Z,5.20
2022-08-17T16:57:47.573Z,4.90
2022-08-17T17:00:21.008Z,5.22
2022-08-17T17:02:50.482Z,5.45
2022-08-17T17:05:44.819Z,4.78
2022-08-17T17:08:26.072Z,4.95
2022-08-17T17:10:58.731Z,5.10
2022-08-17T17:13:33.532Z,4.43
2022-08-17T17:16:07.404Z,5.47
2022-08-17T17:18:42.510Z,5.10
2022-08-17T17:21:15.261Z,4.97
2022-08-17T17:23:52.532Z,5.18
2022-08-17T17:26:59.984Z,5.53
2022-08-17T17:29:46.504Z,6.00
2022-08-17T17:32:23.053Z,6.63
2022-08-17T17:34:56.083Z,5.30
2022-08-17T17:37:32.603Z,5.60
2022-08-17T17:40:05.783Z,5.57
2022-08-17T17:42:35.789Z,5.65
2022-08-17T17:45:17.028Z,6.25
2022-08-17T17:47:46.572Z,5.60
2022-08-17T17:50:17.981Z,5.82
2022-08-17T17:52:51.938Z,5.78
2022-08-17T17:55:32.875Z,5.78
2022-08-17T17:58:10.044Z,5.97
2022-08-17T18:00:44.667Z,5.22
2022-08-17T18:03:26.409Z,7.07
2022-08-17T18:06:14.996Z,8.02
2022-08-17T18:08:53.861Z,6.07
2022-08-17T18:11:37.051Z,5.50
2022-08-17T18:14:18.535Z,5.63
2022-08-17T18:16:54.736Z,5.38
2022-08-17T18:19:26.271Z,5.55
2022-08-17T18:22:04.027Z,5.72
2022-08-17T18:24:38.714Z,7.53
2022-08-17T18:27:23.434Z,7.20
2022-08-17T18:29:54.171Z,7.05
2022-08-17T18:32:34.730Z,7.05
2022-08-17T18:35:35.235Z,6.93
2022-08-17T18:38:23.687Z,6.35
2022-08-17T18:41:01.977Z,6.70
2022-08-17T18:43:43.734Z,7.88
2022-08-17T18:46:29.678Z,7.97
2022-08-17T18:49:03.642Z,7.35
2022-08-17T18:51:40.307Z,7.97
2022-08-17T18:54:20.060Z,7.13
2022-08-17T18:56:55.416Z,8.45
2022-08-17T18:59:30.932Z,7.15
2022-08-17T19:02:27.221Z,6.97
2022-08-17T19:05:10.668Z,7.05
2022-08-17T19:07:41.828Z,7.57
2022-08-17T19:10:24.478Z,8.57
2022-08-17T19:13:00.842Z,7.85
2022-08-17T19:15:38.058Z,8.20
2022-08-17T19:18:15.632Z,9.40
2022-08-17T19:21:00.331Z,7.90
2022-08-17T19:37:18.298Z,6.93
2022-08-17T19:39:53.320Z,8.40
2022-08-17T19:42:37.106Z,7.88
2022-08-17T19:45:14.032Z,8.35
2022-08-17T19:48:04.987Z,7.43
2022-08-17T19:50:41.104Z,7.25
2022-08-17T19:53:21.409Z,7.18
2022-08-17T19:56:01.292Z,7.35
2022-08-17T19:58:45.799Z,7.72
2022-08-17T20:01:21.159Z,7.93
2022-08-17T20:03:58.552Z,8.20
2022-08-17T20:06:30.169Z,7.13
2022-08-17T20:09:12.966Z,8.02
2022-08-17T20:11:48.906Z,7.72
2022-08-17T20:14:21.778Z,8.18
2022-08-17T20:16:50.688Z,8.15
2022-08-17T20:19:25.386Z,7.35
2022-08-17T20:21:59.754Z,8.07
2022-08-17T20:24:39.209Z,8.30
2022-08-17T20:27:15.476Z,8.57
2022-08-17T20:30:09.323Z,7.88
2022-08-17T20:32:52.505Z,8.35
2022-08-17T20:35:26.044Z,8.23
2022-08-17T20:37:58.859Z,8.85
2022-08-17T20:40:33.410Z,8.48
2022-08-17T20:43:40.679Z,9.00
2022-08-17T20:46:20.991Z,8.85
2022-08-17T20:48:53.999Z,8.93
2022-08-17T20:51:31.565Z,14.38
2022-08-17T20:54:37.027Z,9.93
2022-08-17T20:57:13.894Z,10.85
2022-08-17T21:00:02.815Z,10.13
2022-08-17T21:02:32.924Z,9.05
2022-08-17T21:05:30.400Z,11.10
2022-08-17T21:08:02.435Z,9.82
2022-08-17T21:10:36.618Z,9.80
2022-08-17T21:13:46.518Z,10.45
2022-08-17T21:16:51.054Z,9.68
2022-08-17T21:19:44.410Z,9.60
2022-08-17T21:22:38.854Z,9.73
2022-08-17T21:25:20.544Z,9.30
2022-08-17T21:28:00.727Z,10.07
2022-08-17T21:30:50.053Z,9.65
2022-08-17T21:33:25.593Z,9.15
2022-08-17T21:36:16.835Z,9.60
2022-08-17T21:38:57.975Z,9.60
2022-08-17T21:41:29.732Z,9.93
2022-08-17T21:44:07.581Z,10.48
2022-08-17T21:46:46.616Z,9.98
2022-08-17T21:49:17.875Z,9.60
2022-08-17T21:51:50.471Z,9.95
2022-08-17T21:54:31.958Z,10.02
2022-08-17T21:57:04.053Z,9.70
2022-08-17T21:59:36.662Z,9.93
2022-08-17T22:02:10.310Z,9.73
2022-08-17T22:04:41.306Z,9.65
2022-08-17T22:07:13.100Z,10.32
2022-08-17T22:09:44.821Z,10.43
2022-08-17T22:12:18.334Z,11.05
2022-08-17T22:14:57.675Z,10.05
2022-08-17T22:17:29.562Z,10.43
2022-08-17T22:20:01.419Z,10.38
2022-08-17T22:23:00.064Z,10.75
2022-08-17T22:25:29.614Z,11.40
2022-08-17T22:28:01.159Z,11.38
2022-08-17T22:30:41.034Z,10.90
2022-08-17T22:33:39.623Z,11.32
2022-08-17T22:36:30.146Z,11.38
2022-08-17T22:39:01.585Z,11.35
2022-08-17T22:41:41.545Z,12.15
2022-08-17T22:44:27.344Z,11.38
2022-08-17T22:47:02.291Z,11.40
2022-08-17T22:49:38.581Z,11.90
2022-08-17T22:52:34.070Z,12.15
2022-08-17T22:55:25.287Z,12.73
2022-08-17T22:58:11.489Z,11.80
2022-08-17T23:00:42.682Z,12.15
2022-08-17T23:03:16.151Z,12.80
2022-08-17T23:05:50.089Z,12.43
2022-08-17T23:08:21.574Z,12.82
2022-08-17T23:10:50.470Z,13.57
2022-08-17T23:13:21.334Z,14.70
2022-08-17T23:15:52.124Z,14.07
2022-08-17T23:18:23.498Z,12.68
2022-08-17T23:20:53.758Z,14.80
2022-08-17T23:23:23.978Z,13.32
2022-08-17T23:25:54.643Z,13.43
2022-08-17T23:28:23.405Z,14.70
2022-08-17T23:30:52.517Z,14.20
2022-08-17T23:33:27.110Z,12.40
2022-08-17T23:35:58.915Z,13.75
2022-08-17T23:38:28.711Z,14.77
2022-08-17T23:41:00.192Z,14.68
2022-08-17T23:43:31.448Z,14.48
2022-08-17T23:46:03.641Z,15.93
2022-08-17T23:48:36.749Z,16.02
2022-08-17T23:51:13.259Z,16.30
2022-08-17T23:53:47.347Z,15.70
2022-08-17T23:56:19.075Z,17.23
2022-08-17T23:58:47.852Z,17.45
